createdAt,value
2018-08-10T00:01:59.254Z,99.90
2018-08-10T00:04:28.690Z,99.90
2018-08-10T00:06:57.391Z,99.90
2018-08-10T00:09:26.145Z,99.90
2018-08-10T00:11:54.465Z,99.90
2018-08-10T00:14:22.801Z,99.90
2018-08-10T00:16:51.018Z,99.90
2018-08-10T00:19:20.038Z,99.90
2018-08-10T00:21:49.105Z,99.90
2018-08-10T00:24:17.355Z,99.90
2018-08-10T00:26:47.432Z,99.90
2018-08-10T00:29:15.702Z,99.90
2018-08-10T00:31:44.131Z,99.90
2018-08-10T00:34:12.676Z,99.90
2018-08-10T00:36:41.002Z,99.90
2018-08-10T00:39:11.759Z,99.90
2018-08-10T00:41:40.965Z,99.90
2018-08-10T00:44:11.933Z,99.90
2018-08-10T00:46:40.323Z,99.90
2018-08-10T00:49:08.695Z,99.90
2018-08-10T00:51:37.437Z,99.90
2018-08-10T00:54:15.919Z,99.90
2018-08-10T00:56:44.295Z,99.90
2018-08-10T00:59:14.382Z,99.90
2018-08-10T01:01:45.668Z,99.90
2018-08-10T01:04:14.101Z,99.90
2018-08-10T01:06:42.392Z,99.90
2018-08-10T01:09:12.348Z,99.90
2018-08-10T01:11:40.679Z,99.90
2018-08-10T01:14:09.309Z,99.90
2018-08-10T01:16:37.996Z,99.90
2018-08-10T01:19:06.445Z,99.90
2018-08-10T01:21:36.084Z,99.90
2018-08-10T01:24:04.379Z,99.90
2018-08-10T01:26:32.765Z,99.90
2018-08-10T01:29:01.222Z,99.90
2018-08-10T01:31:29.499Z,99.90
2018-08-10T01:33:57.840Z,99.90
2018-08-10T01:36:26.162Z,99.90
2018-08-10T01:38:54.501Z,99.90
2018-08-10T01:41:22.733Z,99.90
2018-08-10T01:43:51.034Z,99.90
2018-08-10T01:46:19.333Z,99.90
2018-08-10T01:48:47.658Z,99.90
2018-08-10T01:51:15.915Z,99.90
2018-08-10T01:53:44.202Z,99.90
2018-08-10T01:56:12.487Z,99.90
2018-08-10T01:58:40.812Z,99.90
2018-08-10T02:01:09.159Z,99.90
2018-08-10T02:03:37.452Z,99.90
2018-08-10T02:06:05.983Z,99.90
2018-08-10T02:08:34.281Z,99.90
2018-08-10T02:11:02.645Z,99.90
2018-08-10T02:13:31.026Z,99.90
2018-08-10T02:15:59.318Z,99.90
2018-08-10T02:18:27.811Z,99.90
2018-08-10T02:20:56.082Z,99.90
2018-08-10T02:23:24.369Z,99.90
2018-08-10T02:25:52.717Z,99.90
2018-08-10T02:28:20.972Z,99.90
2018-08-10T02:30:49.267Z,99.90
2018-08-10T02:33:17.571Z,99.90
2018-08-10T02:35:45.911Z,99.90
2018-08-10T02:38:14.244Z,99.90
2018-08-10T02:40:42.427Z,99.90
2018-08-10T02:43:10.661Z,99.90
2018-08-10T02:45:38.900Z,99.90
2018-08-10T02:48:07.485Z,99.90
2018-08-10T02:50:36.374Z,99.90
2018-08-10T02:53:04.700Z,99.90
2018-08-10T02:55:33.035Z,99.90
2018-08-10T02:58:01.288Z,99.90
2018-08-10T03:00:29.582Z,99.90
2018-08-10T03:02:57.839Z,99.90
2018-08-10T03:05:26.114Z,99.90
2018-08-10T03:07:54.356Z,99.90
2018-08-10T03:10:22.664Z,99.90
2018-08-10T03:12:50.960Z,99.90
2018-08-10T03:15:19.244Z,99.90
2018-08-10T03:17:47.613Z,99.90
2018-08-10T03:20:15.903Z,99.90
2018-08-10T03:22:44.346Z,99.90
2018-08-10T03:25:13.831Z,99.90
2018-08-10T03:27:42.928Z,99.90
2018-08-10T03:30:12.029Z,99.90
2018-08-10T03:32:40.366Z,99.90
2018-08-10T03:35:08.654Z,99.90
2018-08-10T03:37:37.377Z,99.90
2018-08-10T03:40:07.385Z,99.90
2018-08-10T03:42:35.619Z,99.90
2018-08-10T03:45:04.609Z,99.90
2018-08-10T03:47:32.893Z,99.90
2018-08-10T03:50:01.115Z,99.90
2018-08-10T03:52:29.377Z,99.90
2018-08-10T03:54:57.677Z,99.90
2018-08-10T03:57:25.942Z,99.90
2018-08-10T03:59:55.163Z,99.90
2018-08-10T04:02:23.421Z,99.90
2018-08-10T04:04:51.687Z,99.90
2018-08-10T04:07:20.043Z,99.90
2018-08-10T04:09:48.392Z,99.90
2018-08-10T04:12:16.679Z,99.90
2018-08-10T04:14:44.945Z,99.90
2018-08-10T04:17:23.292Z,99.90
2018-08-10T04:19:52.380Z,99.90
2018-08-10T04:22:20.763Z,99.90
2018-08-10T04:24:49.037Z,99.90
2018-08-10T04:27:17.312Z,99.90
2018-08-10T04:29:46.064Z,99.90
2018-08-10T04:32:14.263Z,99.90
2018-08-10T04:34:42.633Z,99.90
2018-08-10T04:37:10.912Z,99.90
2018-08-10T04:39:39.131Z,99.90
2018-08-10T04:42:07.402Z,99.90
2018-08-10T04:44:35.579Z,99.90
2018-08-10T04:47:03.801Z,99.90
2018-08-10T04:49:32.023Z,99.90
2018-08-10T04:52:00.263Z,99.90
2018-08-10T04:54:28.503Z,99.90
2018-08-10T04:56:56.711Z,99.90
2018-08-10T04:59:25.559Z,99.90
2018-08-10T05:01:53.814Z,99.90
2018-08-10T05:04:22.018Z,99.90
2018-08-10T05:06:50.339Z,99.90
2018-08-10T05:09:18.567Z,99.90
2018-08-10T05:11:47.136Z,99.90
2018-08-10T05:14:15.944Z,99.90
2018-08-10T05:16:44.395Z,99.90
2018-08-10T05:19:13.420Z,99.90
2018-08-10T05:21:41.721Z,99.90
2018-08-10T05:24:10.875Z,99.90
2018-08-10T05:26:39.315Z,99.90
2018-08-10T05:29:07.647Z,99.90
2018-08-10T05:31:36.280Z,99.90
2018-08-10T05:34:04.572Z,99.90
2018-08-10T05:36:32.825Z,99.90
2018-08-10T05:39:01.189Z,99.90
2018-08-10T05:41:29.574Z,99.90
2018-08-10T05:43:57.907Z,99.90
2018-08-10T05:46:26.179Z,99.90
2018-08-10T05:48:54.478Z,99.90
2018-08-10T05:51:22.689Z,99.90
2018-08-10T05:53:50.932Z,99.90
2018-08-10T05:56:19.120Z,99.90
2018-08-10T05:58:47.327Z,99.90
2018-08-10T06:01:15.551Z,99.90
2018-08-10T06:03:43.783Z,99.90
2018-08-10T06:06:12.003Z,99.90
2018-08-10T06:08:40.207Z,99.90
2018-08-10T06:11:08.477Z,99.90
2018-08-10T06:13:36.671Z,99.90
2018-08-10T06:16:04.870Z,99.90
2018-08-10T06:18:33.091Z,99.90
2018-08-10T06:21:01.974Z,99.90
2018-08-10T06:23:30.238Z,99.90
2018-08-10T06:25:58.459Z,99.90
2018-08-10T06:28:26.707Z,99.90
2018-08-10T06:30:55.934Z,99.90
2018-08-10T06:33:24.224Z,99.90
2018-08-10T06:35:53.328Z,99.90
2018-08-10T06:38:21.582Z,99.90
2018-08-10T06:40:49.773Z,99.90
2018-08-10T06:43:17.961Z,99.90
2018-08-10T06:45:47.034Z,99.90
2018-08-10T06:48:15.236Z,99.90
2018-08-10T06:50:43.431Z,99.90
2018-08-10T06:53:11.656Z,99.90
2018-08-10T06:55:39.848Z,99.90
2018-08-10T06:58:08.040Z,99.90
2018-08-10T07:00:36.332Z,99.90
2018-08-10T07:03:04.667Z,99.90
2018-08-10T07:05:33.147Z,99.90
2018-08-10T07:08:01.431Z,99.90
2018-08-10T07:10:30.956Z,99.90
2018-08-10T07:12:59.146Z,99.90
2018-08-10T07:15:27.325Z,99.90
2018-08-10T07:17:55.508Z,99.90
2018-08-10T07:20:23.726Z,99.90
2018-08-10T07:22:51.939Z,99.90
2018-08-10T07:25:20.144Z,99.90
2018-08-10T07:27:48.348Z,99.90
2018-08-10T07:30:16.546Z,99.90
2018-08-10T07:32:44.741Z,99.90
2018-08-10T07:35:12.941Z,99.90
2018-08-10T07:37:41.143Z,99.90
2018-08-10T07:40:09.335Z,99.90
2018-08-10T07:42:37.512Z,99.90
2018-08-10T07:45:05.838Z,99.90
2018-08-10T07:47:34.042Z,99.90
2018-08-10T07:50:02.262Z,99.90
2018-08-10T07:52:30.457Z,99.90
2018-08-10T07:54:58.742Z,99.90
2018-08-10T07:57:26.938Z,99.90
2018-08-10T07:59:55.161Z,99.90
2018-08-10T08:02:23.374Z,99.90
2018-08-10T08:04:51.587Z,99.90
2018-08-10T08:07:19.849Z,99.90
2018-08-10T08:09:48.036Z,99.90
2018-08-10T08:12:16.223Z,99.90
2018-08-10T08:14:44.433Z,99.90
2018-08-10T08:17:12.668Z,99.90
2018-08-10T08:19:40.939Z,99.90
2018-08-10T08:22:14.842Z,99.90
2018-08-10T08:24:43.326Z,99.90
2018-08-10T08:27:12.650Z,99.90
2018-08-10T08:29:40.866Z,99.90
2018-08-10T08:32:09.174Z,99.90
2018-08-10T08:34:37.438Z,99.90
2018-08-10T08:37:05.920Z,99.90
2018-08-10T08:40:47.481Z,99.90
2018-08-10T08:43:25.895Z,99.90
2018-08-10T08:46:10.469Z,99.90
2018-08-10T08:48:41.280Z,99.90
2018-08-10T08:51:11.736Z,99.90
2018-08-10T08:53:39.943Z,99.90
2018-08-10T08:56:11.487Z,99.90
2018-08-10T08:58:40.366Z,99.90
2018-08-10T09:01:08.945Z,99.90
2018-08-10T09:03:48.531Z,99.90
2018-08-10T09:06:16.751Z,99.90
2018-08-10T09:08:55.037Z,99.90
2018-08-10T09:11:23.232Z,99.90
2018-08-10T09:15:08.758Z,99.90
2018-08-10T09:17:37.072Z,99.90
2018-08-10T09:20:06.188Z,99.90
2018-08-10T09:22:34.403Z,99.90
2018-08-10T09:25:02.718Z,99.90
2018-08-10T09:27:30.946Z,99.90
2018-08-10T09:29:59.165Z,99.90
2018-08-10T09:32:27.413Z,99.90
2018-08-10T09:34:55.638Z,99.90
2018-08-10T09:37:23.928Z,99.90
2018-08-10T09:39:52.156Z,99.90
2018-08-10T09:42:20.400Z,99.90
2018-08-10T09:44:48.612Z,99.90
2018-08-10T09:47:17.405Z,99.90
2018-08-10T09:49:49.491Z,99.90
2018-08-10T09:52:17.736Z,99.90
2018-08-10T09:55:23.171Z,99.90
2018-08-10T09:57:54.772Z,99.90
2018-08-10T10:00:28.421Z,99.90
2018-08-10T10:03:02.037Z,99.90
2018-08-10T10:05:30.247Z,99.90
2018-08-10T10:07:58.432Z,99.90
2018-08-10T10:10:26.742Z,99.90
2018-08-10T10:12:55.382Z,99.90
2018-08-10T10:15:23.619Z,99.90
2018-08-10T10:17:52.011Z,98.60
2018-08-10T10:20:20.254Z,99.30
2018-08-10T10:22:49.147Z,99.30
2018-08-10T10:25:17.612Z,99.90
2018-08-10T10:27:45.939Z,98.00
2018-08-10T10:30:14.247Z,99.90
2018-08-10T10:32:42.910Z,99.90
2018-08-10T10:35:11.082Z,99.30
2018-08-10T10:37:39.403Z,99.90
2018-08-10T10:40:08.769Z,97.70
2018-08-10T10:42:36.963Z,97.10
2018-08-10T10:45:07.350Z,99.40
2018-08-10T10:47:35.543Z,97.70
2018-08-10T10:50:04.161Z,97.00
2018-08-10T10:52:32.376Z,97.30
2018-08-10T10:55:00.586Z,96.80
2018-08-10T10:57:28.821Z,98.20
2018-08-10T10:59:57.014Z,94.50
2018-08-10T11:02:25.262Z,93.50
2018-08-10T11:04:53.846Z,94.50
2018-08-10T11:07:22.051Z,92.50
2018-08-10T11:09:50.334Z,92.70
2018-08-10T11:12:18.574Z,91.00
2018-08-10T11:14:46.784Z,91.70
2018-08-10T11:17:15.471Z,92.20
2018-08-10T11:19:43.725Z,87.10
2018-08-10T11:22:12.606Z,89.60
2018-08-10T11:24:40.791Z,83.90
2018-08-10T11:27:08.986Z,82.90
2018-08-10T11:29:37.197Z,82.90
2018-08-10T11:32:05.428Z,84.30
2018-08-10T11:34:33.621Z,85.10
2018-08-10T11:37:01.930Z,88.10
2018-08-10T11:39:30.212Z,89.10
2018-08-10T11:41:58.426Z,91.20
2018-08-10T11:44:27.217Z,88.90
2018-08-10T11:46:55.464Z,87.70
2018-08-10T11:49:23.670Z,86.70
2018-08-10T11:51:51.881Z,90.00
2018-08-10T11:54:20.129Z,89.30
2018-08-10T11:56:48.393Z,90.20
2018-08-10T11:59:16.599Z,86.60
2018-08-10T12:01:44.830Z,90.50
2018-08-10T12:04:13.595Z,91.20
2018-08-10T12:06:41.863Z,87.10
2018-08-10T12:09:11.625Z,84.80
2018-08-10T12:11:40.331Z,85.50
2018-08-10T12:14:08.781Z,86.00
2018-08-10T12:16:37.039Z,90.10
2018-08-10T12:19:05.428Z,90.10
2018-08-10T12:21:33.611Z,90.70
2018-08-10T12:24:02.853Z,86.50
2018-08-10T12:26:31.031Z,88.30
2018-08-10T12:28:59.303Z,85.70
2018-08-10T12:31:27.530Z,89.80
2018-08-10T12:33:55.762Z,83.90
2018-08-10T12:36:23.982Z,81.50
2018-08-10T12:38:52.162Z,85.40
2018-08-10T12:41:20.356Z,84.40
2018-08-10T12:43:48.597Z,84.30
2018-08-10T12:46:16.987Z,87.20
2018-08-10T12:48:45.223Z,83.40
2018-08-10T12:51:13.538Z,86.40
2018-08-10T12:53:41.728Z,86.30
2018-08-10T12:56:09.925Z,88.20
2018-08-10T12:58:38.170Z,87.50
2018-08-10T13:01:06.421Z,85.30
2018-08-10T13:03:34.636Z,88.00
2018-08-10T13:06:02.906Z,82.40
2018-08-10T13:08:31.308Z,83.70
2018-08-10T13:10:59.477Z,82.90
2018-08-10T13:13:27.708Z,86.50
2018-08-10T13:15:55.912Z,84.30
2018-08-10T13:18:24.117Z,85.70
2018-08-10T13:20:52.300Z,86.90
2018-08-10T13:23:20.491Z,85.10
2018-08-10T13:25:48.705Z,88.20
2018-08-10T13:28:16.987Z,86.40
2018-08-10T13:30:45.245Z,84.50
2018-08-10T13:33:13.456Z,85.80
2018-08-10T13:35:41.651Z,87.40
2018-08-10T13:38:09.886Z,83.60
2018-08-10T13:40:38.378Z,80.70
2018-08-10T13:43:06.875Z,84.50
2018-08-10T13:45:35.135Z,83.20
2018-08-10T13:48:03.365Z,82.10
2018-08-10T13:50:31.628Z,81.80
2018-08-10T13:52:59.854Z,84.40
2018-08-10T13:55:28.109Z,83.50
2018-08-10T13:57:56.314Z,83.90
2018-08-10T14:00:25.579Z,83.50
2018-08-10T14:02:54.984Z,81.40
2018-08-10T14:05:23.837Z,80.70
2018-08-10T14:07:52.741Z,83.70
2018-08-10T14:10:20.954Z,84.30
2018-08-10T14:12:49.159Z,83.60
2018-08-10T14:15:17.384Z,85.50
2018-08-10T14:17:45.607Z,85.90
2018-08-10T14:20:14.176Z,84.00
2018-08-10T14:22:42.383Z,83.10
2018-08-10T14:25:11.120Z,83.20
2018-08-10T14:27:39.334Z,82.10
2018-08-10T14:30:10.069Z,81.70
2018-08-10T14:32:38.584Z,84.20
2018-08-10T14:35:07.376Z,81.20
2018-08-10T14:37:36.958Z,82.80
2018-08-10T14:40:07.079Z,77.00
2018-08-10T14:42:35.609Z,81.80
2018-08-10T14:45:04.538Z,81.60
2018-08-10T14:47:32.804Z,80.70
2018-08-10T14:50:01.083Z,81.80
2018-08-10T14:52:29.265Z,81.50
2018-08-10T14:54:57.481Z,81.20
2018-08-10T14:57:25.707Z,78.10
2018-08-10T14:59:53.940Z,79.00
2018-08-10T15:02:22.251Z,78.50
2018-08-10T15:04:50.553Z,79.60
2018-08-10T15:07:18.801Z,76.00
2018-08-10T15:09:47.050Z,77.50
2018-08-10T15:12:15.456Z,79.10
2018-08-10T15:14:43.703Z,75.80
2018-08-10T15:17:11.895Z,76.30
2018-08-10T15:19:41.132Z,76.10
2018-08-10T15:22:09.354Z,73.60
2018-08-10T15:24:37.715Z,75.40
2018-08-10T15:27:05.936Z,76.50
2018-08-10T15:29:34.208Z,77.10
2018-08-10T15:32:02.480Z,78.60
2018-08-10T15:34:30.650Z,80.60
2018-08-10T15:37:38.119Z,78.20
2018-08-10T15:40:07.757Z,76.20
2018-08-10T15:42:36.105Z,74.20
2018-08-10T15:45:06.591Z,70.80
2018-08-10T15:47:34.930Z,71.70
2018-08-10T15:50:03.172Z,71.80
2018-08-10T15:52:32.326Z,71.50
2018-08-10T15:55:00.541Z,71.80
2018-08-10T15:57:28.861Z,74.20
2018-08-10T15:59:57.042Z,75.30
2018-08-10T16:02:25.266Z,71.60
2018-08-10T16:04:53.517Z,71.80
2018-08-10T16:07:21.782Z,72.20
2018-08-10T16:09:50.027Z,74.80
2018-08-10T16:12:18.318Z,74.40
2018-08-10T16:14:46.550Z,73.20
2018-08-10T16:17:14.766Z,74.00
2018-08-10T16:19:44.316Z,72.40
2018-08-10T16:22:13.248Z,74.30
2018-08-10T16:24:41.482Z,74.20
2018-08-10T16:27:10.323Z,71.00
2018-08-10T16:29:38.579Z,71.90
2018-08-10T16:32:06.820Z,68.20
2018-08-10T16:34:35.102Z,68.90
2018-08-10T16:37:03.442Z,68.80
2018-08-10T16:39:31.684Z,70.60
2018-08-10T16:41:59.893Z,69.90
2018-08-10T16:44:28.170Z,68.90
2018-08-10T16:46:56.388Z,68.60
2018-08-10T16:49:24.826Z,67.70
2018-08-10T16:51:53.078Z,68.10
2018-08-10T16:54:21.316Z,70.60
2018-08-10T16:56:49.686Z,70.30
2018-08-10T16:59:17.932Z,69.50
2018-08-10T17:01:46.159Z,69.60
2018-08-10T17:04:14.443Z,70.30
2018-08-10T17:06:42.895Z,69.90
2018-08-10T17:09:11.542Z,70.80
2018-08-10T17:11:39.826Z,70.00
2018-08-10T17:14:08.695Z,71.00
2018-08-10T17:16:36.949Z,71.10
2018-08-10T17:19:05.218Z,70.50
2018-08-10T17:21:33.423Z,72.10
2018-08-10T17:24:01.700Z,73.80
2018-08-10T17:26:29.929Z,73.80
2018-08-10T17:28:58.095Z,74.30
2018-08-10T17:31:26.304Z,73.80
2018-08-10T17:33:54.658Z,76.30
2018-08-10T17:36:22.973Z,74.50
2018-08-10T17:38:51.424Z,76.10
2018-08-10T17:41:19.771Z,76.00
2018-08-10T17:43:48.027Z,76.50
2018-08-10T17:46:16.303Z,76.60
2018-08-10T17:48:45.236Z,77.10
2018-08-10T17:51:13.481Z,78.10
2018-08-10T17:53:42.005Z,80.20
2018-08-10T17:56:10.236Z,80.90
2018-08-10T17:58:38.517Z,81.70
2018-08-10T18:01:06.750Z,81.20
2018-08-10T18:03:35.002Z,81.90
2018-08-10T18:06:03.447Z,83.90
2018-08-10T18:08:32.432Z,83.20
2018-08-10T18:11:00.673Z,84.80
2018-08-10T18:13:29.530Z,85.90
2018-08-10T18:15:57.818Z,85.10
2018-08-10T18:18:26.110Z,86.60
2018-08-10T18:20:54.528Z,85.20
2018-08-10T18:23:22.817Z,86.50
2018-08-10T18:25:51.179Z,85.60
2018-08-10T18:28:19.675Z,87.10
2018-08-10T18:30:48.112Z,88.20
2018-08-10T18:33:16.413Z,88.30
2018-08-10T18:35:44.992Z,88.50
2018-08-10T18:38:13.763Z,92.70
2018-08-10T18:40:42.010Z,93.00
2018-08-10T18:43:10.289Z,93.70
2018-08-10T18:45:38.567Z,93.20
2018-08-10T18:48:06.876Z,93.40
2018-08-10T18:50:35.249Z,92.90
2018-08-10T18:53:03.661Z,93.70
2018-08-10T18:55:31.883Z,93.50
2018-08-10T18:58:00.459Z,93.70
2018-08-10T19:00:28.747Z,94.10
2018-08-10T19:02:56.952Z,94.60
2018-08-10T19:05:25.207Z,96.00
2018-08-10T19:07:53.483Z,95.50
2018-08-10T19:10:23.554Z,95.70
2018-08-10T19:12:51.770Z,96.40
2018-08-10T19:15:19.997Z,97.60
2018-08-10T19:17:48.354Z,97.20
2018-08-10T19:20:17.145Z,98.30
2018-08-10T19:22:46.104Z,97.90
2018-08-10T19:25:15.056Z,97.10
2018-08-10T19:27:43.438Z,98.30
2018-08-10T19:30:18.217Z,99.10
2018-08-10T19:32:47.413Z,98.70
2018-08-10T19:35:16.210Z,98.50
2018-08-10T19:37:44.502Z,98.40
2018-08-10T19:40:14.210Z,99.10
2018-08-10T19:42:42.561Z,99.90
2018-08-10T19:45:12.208Z,99.90
2018-08-10T19:47:40.683Z,99.90
2018-08-10T19:50:10.271Z,99.90
2018-08-10T19:52:38.579Z,99.90
2018-08-10T19:55:08.756Z,99.90
2018-08-10T19:57:37.019Z,99.90
2018-08-10T20:00:06.549Z,99.90
2018-08-10T20:02:35.029Z,99.90
2018-08-10T20:05:03.414Z,99.90
2018-08-10T20:07:31.665Z,99.90
2018-08-10T20:10:00.092Z,99.90
2018-08-10T20:12:28.332Z,99.90
2018-08-10T20:14:56.632Z,99.90
2018-08-10T20:17:24.859Z,99.90
2018-08-10T20:19:53.080Z,99.90
2018-08-10T20:22:21.354Z,99.90
2018-08-10T20:24:50.207Z,99.90
2018-08-10T20:27:18.606Z,99.90
2018-08-10T20:29:46.887Z,99.90
2018-08-10T20:32:15.265Z,99.90
2018-08-10T20:34:43.559Z,99.90
2018-08-10T20:37:11.795Z,99.90
2018-08-10T20:39:40.212Z,99.90
2018-08-10T20:42:08.671Z,99.90
2018-08-10T20:44:36.943Z,99.90
2018-08-10T20:47:05.283Z,99.90
2018-08-10T20:49:33.536Z,99.90
2018-08-10T20:52:01.795Z,99.90
2018-08-10T20:54:29.976Z,99.90
2018-08-10T20:56:58.189Z,99.90
2018-08-10T20:59:26.408Z,99.90
2018-08-10T21:01:54.650Z,99.90
2018-08-10T21:04:22.919Z,99.90
2018-08-10T21:06:51.124Z,99.90
2018-08-10T21:09:19.364Z,99.90
2018-08-10T21:11:47.577Z,99.90
2018-08-10T21:14:15.866Z,99.90
2018-08-10T21:16:44.093Z,99.90
2018-08-10T21:19:12.377Z,99.90
2018-08-10T21:21:40.619Z,99.90
2018-08-10T21:24:08.892Z,99.90
2018-08-10T21:26:37.172Z,99.90
2018-08-10T21:29:05.499Z,99.90
2018-08-10T21:31:33.720Z,99.90
2018-08-10T21:34:01.984Z,99.90
2018-08-10T21:36:30.226Z,99.90
2018-08-10T21:38:58.888Z,99.90
2018-08-10T21:41:27.224Z,99.90
2018-08-10T21:43:55.514Z,99.90
2018-08-10T21:46:23.767Z,99.90
2018-08-10T21:48:52.280Z,99.90
2018-08-10T21:51:21.752Z,99.90
2018-08-10T21:53:50.050Z,99.90
2018-08-10T21:56:18.484Z,99.90
2018-08-10T21:58:46.767Z,99.90
2018-08-10T22:01:15.075Z,99.90
2018-08-10T22:03:43.531Z,99.90
2018-08-10T22:06:11.928Z,99.90
2018-08-10T22:08:40.289Z,99.90
2018-08-10T22:11:08.668Z,99.90
2018-08-10T22:13:42.339Z,99.90
2018-08-10T22:16:15.996Z,99.90
2018-08-10T22:18:49.813Z,99.90
2018-08-10T22:21:18.050Z,99.90
2018-08-10T22:23:46.333Z,99.90
2018-08-10T22:26:14.733Z,99.90
2018-08-10T22:28:43.273Z,99.90
2018-08-10T22:31:11.588Z,99.90
2018-08-10T22:33:39.979Z,99.90
2018-08-10T22:36:08.355Z,99.90
2018-08-10T22:38:36.618Z,99.90
2018-08-10T22:41:04.965Z,99.90
2018-08-10T22:43:33.427Z,99.90
2018-08-10T22:46:01.715Z,99.90
2018-08-10T22:48:29.911Z,99.90
2018-08-10T22:50:58.179Z,99.90
2018-08-10T22:53:26.512Z,99.90
2018-08-10T22:55:54.867Z,99.90
2018-08-10T22:58:23.288Z,99.90
2018-08-10T23:00:51.538Z,99.90
2018-08-10T23:03:19.983Z,99.90
2018-08-10T23:05:48.193Z,99.90
2018-08-10T23:08:16.660Z,99.90
2018-08-10T23:10:45.105Z,99.90
2018-08-10T23:13:13.537Z,99.90
2018-08-10T23:15:42.368Z,99.90
2018-08-10T23:18:10.846Z,99.90
2018-08-10T23:20:39.220Z,99.90
2018-08-10T23:23:07.574Z,99.90
2018-08-10T23:25:35.891Z,99.90
2018-08-10T23:28:04.273Z,99.90
2018-08-10T23:30:32.666Z,99.90
2018-08-10T23:33:00.908Z,99.90
2018-08-10T23:35:29.283Z,99.90
2018-08-10T23:37:57.792Z,99.90
2018-08-10T23:40:26.111Z,99.90
2018-08-10T23:42:54.403Z,99.90
2018-08-10T23:45:22.785Z,99.90
2018-08-10T23:47:51.127Z,99.90
2018-08-10T23:50:19.447Z,99.90
2018-08-10T23:52:47.919Z,99.90
2018-08-10T23:55:18.064Z,99.90
2018-08-10T23:57:46.955Z,99.90
